createdAt,value
2023-06-02T00:00:47.483Z,997.09
2023-06-02T00:01:47.496Z,997.06
2023-06-02T00:02:47.565Z,997.08
2023-06-02T00:03:47.496Z,997.07
2023-06-02T00:04:47.453Z,997.13
2023-06-02T00:05:47.519Z,997.10
2023-06-02T00:06:47.461Z,997.12
2023-06-02T00:07:47.421Z,997.09
2023-06-02T00:08:47.456Z,997.12
2023-06-02T00:09:47.406Z,997.15
2023-06-02T00:10:47.437Z,997.06
2023-06-02T00:11:47.390Z,997.11
2023-06-02T00:12:47.383Z,997.15
2023-06-02T00:13:47.376Z,997.10
2023-06-02T00:14:47.373Z,997.10
2023-06-02T00:15:47.414Z,997.15
2023-06-02T00:16:47.546Z,997.18
2023-06-02T00:17:47.434Z,997.12
2023-06-02T00:18:47.335Z,997.18
2023-06-02T00:19:47.360Z,997.07
2023-06-02T00:20:47.357Z,997.15
2023-06-02T00:21:47.538Z,997.10
2023-06-02T00:22:47.305Z,997.13
2023-06-02T00:23:47.296Z,997.09
2023-06-02T00:24:47.317Z,997.15
2023-06-02T00:25:47.289Z,997.06
2023-06-02T00:26:47.287Z,997.09
2023-06-02T00:27:47.272Z,997.10
2023-06-02T00:28:47.271Z,997.08
2023-06-02T00:29:47.290Z,997.04
2023-06-02T00:30:47.260Z,997.10
2023-06-02T00:31:47.298Z,997.07
2023-06-02T00:32:47.305Z,997.01
2023-06-02T00:33:47.252Z,996.98
2023-06-02T00:34:47.250Z,997.10
2023-06-02T00:35:47.218Z,997.02
2023-06-02T00:36:47.225Z,997.05
2023-06-02T00:37:47.209Z,997.03
2023-06-02T00:38:47.241Z,997.01
2023-06-02T00:39:47.195Z,996.94
2023-06-02T00:40:47.186Z,996.89
2023-06-02T00:41:47.194Z,996.94
2023-06-02T00:42:47.166Z,996.97
2023-06-02T00:43:47.172Z,996.91
2023-06-02T00:44:47.143Z,996.96
2023-06-02T00:45:47.133Z,996.94
2023-06-02T00:46:47.193Z,996.93
2023-06-02T00:47:47.134Z,996.96
2023-06-02T00:48:47.139Z,996.95
2023-06-02T00:49:47.115Z,996.89
2023-06-02T00:51:20.055Z,996.94
2023-06-02T00:51:47.084Z,996.94
2023-06-02T00:52:47.133Z,996.98
2023-06-02T00:53:47.123Z,996.94
2023-06-02T00:54:47.084Z,996.91
2023-06-02T00:55:47.068Z,996.94
2023-06-02T00:56:47.058Z,996.88
2023-06-02T00:57:47.070Z,996.91
2023-06-02T00:58:47.107Z,996.97
2023-06-02T00:59:47.032Z,996.97
2023-06-02T01:00:47.062Z,997.05
2023-06-02T01:01:47.014Z,996.97
2023-06-02T01:02:47.072Z,996.88
2023-06-02T01:03:47.113Z,996.88
2023-06-02T01:04:46.977Z,996.96
2023-06-02T01:05:46.980Z,996.93
2023-06-02T01:06:47.045Z,996.93
2023-06-02T01:07:47.000Z,996.89
2023-06-02T01:08:46.978Z,996.92
2023-06-02T01:09:46.975Z,996.94
2023-06-02T01:10:46.948Z,996.96
2023-06-02T01:11:46.985Z,996.99
2023-06-02T01:12:46.941Z,996.94
2023-06-02T01:13:46.987Z,996.95
2023-06-02T01:14:46.918Z,996.96
2023-06-02T01:15:46.910Z,996.94
2023-06-02T01:16:46.931Z,996.91
2023-06-02T01:17:47.259Z,996.99
2023-06-02T01:18:46.912Z,996.91
2023-06-02T01:19:46.873Z,996.92
2023-06-02T01:20:46.906Z,996.96
2023-06-02T01:21:46.918Z,996.96
2023-06-02T01:22:46.873Z,996.89
2023-06-02T01:23:46.941Z,996.91
2023-06-02T01:24:47.558Z,996.93
2023-06-02T01:25:46.901Z,996.90
2023-06-02T01:26:46.835Z,996.88
2023-06-02T01:27:46.813Z,996.92
2023-06-02T01:28:46.940Z,996.88
2023-06-02T01:29:46.804Z,996.90
2023-06-02T01:30:46.827Z,996.88
2023-06-02T01:31:46.856Z,996.85
2023-06-02T01:32:46.801Z,996.92
2023-06-02T01:33:46.786Z,996.90
2023-06-02T01:34:48.539Z,996.89
2023-06-02T01:35:46.789Z,996.93
2023-06-02T01:36:46.753Z,996.94
2023-06-02T01:37:46.741Z,996.94
2023-06-02T01:38:46.721Z,996.93
2023-06-02T01:39:47.756Z,996.91
2023-06-02T01:40:46.721Z,996.89
2023-06-02T01:41:46.783Z,996.82
2023-06-02T01:42:46.701Z,996.88
2023-06-02T01:43:46.730Z,996.86
2023-06-02T01:44:46.714Z,996.89
2023-06-02T01:45:46.684Z,996.87
2023-06-02T01:46:46.789Z,996.89
2023-06-02T01:47:46.741Z,996.84
2023-06-02T01:48:46.709Z,996.91
2023-06-02T01:49:46.685Z,996.90
2023-06-02T01:50:46.637Z,996.89
2023-06-02T01:51:46.636Z,996.83
2023-06-02T01:52:46.625Z,996.82
2023-06-02T01:53:46.682Z,996.90
2023-06-02T01:54:46.639Z,996.88
2023-06-02T01:55:46.643Z,996.88
2023-06-02T01:56:46.593Z,996.88
2023-06-02T01:57:46.591Z,996.85
2023-06-02T01:58:46.727Z,996.91
2023-06-02T01:59:46.572Z,996.91
2023-06-02T02:00:46.568Z,996.93
2023-06-02T02:01:46.644Z,996.81
2023-06-02T02:02:46.648Z,996.87
2023-06-02T02:03:46.826Z,996.86
2023-06-02T02:04:46.538Z,996.92
2023-06-02T02:05:46.543Z,996.83
2023-06-02T02:06:46.521Z,996.95
2023-06-02T02:07:46.538Z,996.92
2023-06-02T02:08:46.548Z,996.92
2023-06-02T02:09:46.509Z,996.99
2023-06-02T02:10:46.487Z,996.96
2023-06-02T02:11:46.489Z,996.89
2023-06-02T02:12:46.499Z,996.90
2023-06-02T02:13:46.496Z,996.84
2023-06-02T02:14:46.469Z,996.90
2023-06-02T02:15:46.456Z,996.94
2023-06-02T02:16:46.575Z,996.89
2023-06-02T02:17:46.612Z,996.89
2023-06-02T02:18:46.424Z,996.94
2023-06-02T02:19:46.504Z,996.89
2023-06-02T02:20:46.419Z,996.93
2023-06-02T02:21:46.425Z,996.99
2023-06-02T02:22:46.446Z,996.94
2023-06-02T02:23:46.387Z,997.01
2023-06-02T02:24:46.380Z,996.91
2023-06-02T02:25:46.370Z,997.03
2023-06-02T02:26:46.383Z,997.06
2023-06-02T02:27:46.400Z,996.93
2023-06-02T02:28:46.337Z,997.04
2023-06-02T02:29:46.341Z,997.05
2023-06-02T02:30:46.333Z,997.00
2023-06-02T02:31:46.358Z,997.05
2023-06-02T02:32:46.373Z,997.02
2023-06-02T02:33:46.314Z,997.15
2023-06-02T02:34:46.288Z,997.13
2023-06-02T02:35:46.289Z,997.14
2023-06-02T02:36:46.310Z,997.13
2023-06-02T02:37:47.681Z,997.16
2023-06-02T02:38:47.262Z,997.06
2023-06-02T02:39:46.247Z,997.12
2023-06-02T02:40:46.274Z,997.15
2023-06-02T02:41:46.269Z,997.06
2023-06-02T02:42:46.243Z,997.12
2023-06-02T02:43:46.228Z,997.14
2023-06-02T02:44:46.234Z,997.12
2023-06-02T02:45:46.332Z,997.09
2023-06-02T02:46:46.210Z,997.15
2023-06-02T02:47:46.259Z,997.18
2023-06-02T02:48:46.194Z,997.16
2023-06-02T02:49:46.181Z,997.21
2023-06-02T02:50:46.209Z,997.14
2023-06-02T02:51:46.176Z,997.15
2023-06-02T02:52:46.157Z,997.21
2023-06-02T02:53:46.149Z,997.19
2023-06-02T02:54:46.169Z,997.23
2023-06-02T02:55:46.165Z,997.18
2023-06-02T02:56:46.207Z,997.19
2023-06-02T02:57:46.131Z,997.26
2023-06-02T02:58:46.129Z,997.21
2023-06-02T02:59:47.133Z,997.15
2023-06-02T03:00:46.104Z,997.19
2023-06-02T03:01:46.168Z,997.18
2023-06-02T03:02:46.112Z,997.23
2023-06-02T03:03:46.093Z,997.20
2023-06-02T03:04:46.100Z,997.21
2023-06-02T03:05:46.051Z,997.20
2023-06-02T03:06:47.053Z,997.25
2023-06-02T03:07:46.073Z,997.13
2023-06-02T03:08:46.060Z,997.23
2023-06-02T03:09:46.050Z,997.22
2023-06-02T03:10:46.015Z,997.19
2023-06-02T03:11:46.021Z,997.19
2023-06-02T03:12:45.999Z,997.20
2023-06-02T03:13:46.050Z,997.23
2023-06-02T03:14:46.015Z,997.25
2023-06-02T03:15:45.990Z,997.22
2023-06-02T03:16:46.084Z,997.22
2023-06-02T03:17:46.029Z,997.23
2023-06-02T03:18:46.013Z,997.20
2023-06-02T03:19:45.949Z,997.19
2023-06-02T03:20:45.947Z,997.22
2023-06-02T03:21:46.076Z,997.31
2023-06-02T03:22:45.958Z,997.29
2023-06-02T03:23:45.946Z,997.35
2023-06-02T03:24:45.911Z,997.35
2023-06-02T03:25:45.906Z,997.30
2023-06-02T03:26:45.901Z,997.33
2023-06-02T03:27:45.915Z,997.29
2023-06-02T03:28:45.879Z,997.34
2023-06-02T03:29:45.871Z,997.38
2023-06-02T03:30:45.873Z,997.31
2023-06-02T03:31:45.869Z,997.36
2023-06-02T03:32:45.929Z,997.37
2023-06-02T03:33:45.839Z,997.34
2023-06-02T03:34:45.899Z,997.38
2023-06-02T03:35:45.826Z,997.38
2023-06-02T03:36:45.849Z,997.31
2023-06-02T03:37:45.827Z,997.34
2023-06-02T03:38:45.803Z,997.35
2023-06-02T03:39:45.796Z,997.37
2023-06-02T03:40:45.783Z,997.33
2023-06-02T03:41:45.808Z,997.37
2023-06-02T03:42:45.777Z,997.39
2023-06-02T03:43:45.759Z,997.40
2023-06-02T03:44:45.748Z,997.34
2023-06-02T03:45:45.748Z,997.37
2023-06-02T03:46:45.808Z,997.37
2023-06-02T03:47:45.765Z,997.33
2023-06-02T03:48:45.733Z,997.33
2023-06-02T03:49:45.722Z,997.39
2023-06-02T03:50:45.737Z,997.43
2023-06-02T03:51:45.733Z,997.38
2023-06-02T03:52:45.713Z,997.42
2023-06-02T03:53:45.687Z,997.37
2023-06-02T03:54:45.675Z,997.38
2023-06-02T03:55:45.708Z,997.43
2023-06-02T03:56:45.683Z,997.46
2023-06-02T03:57:45.658Z,997.38
2023-06-02T03:58:45.656Z,997.45
2023-06-02T03:59:45.653Z,997.44
2023-06-02T04:00:45.681Z,997.36
2023-06-02T04:01:45.668Z,997.52
2023-06-02T04:02:45.661Z,997.47
2023-06-02T04:03:45.640Z,997.51
2023-06-02T04:04:45.650Z,997.44
2023-06-02T04:05:45.636Z,997.50
2023-06-02T04:06:45.606Z,997.54
2023-06-02T04:07:45.590Z,997.46
2023-06-02T04:08:45.578Z,997.52
2023-06-02T04:09:45.604Z,997.54
2023-06-02T04:10:45.576Z,997.51
2023-06-02T04:11:45.555Z,997.48
2023-06-02T04:12:45.550Z,997.51
2023-06-02T04:13:45.543Z,997.52
2023-06-02T04:14:45.557Z,997.49
2023-06-02T04:15:45.523Z,997.51
2023-06-02T04:16:45.594Z,997.56
2023-06-02T04:17:45.525Z,997.54
2023-06-02T04:18:45.526Z,997.59
2023-06-02T04:19:47.275Z,997.56
2023-06-02T04:20:45.497Z,997.53
2023-06-02T04:21:45.560Z,997.60
2023-06-02T04:22:45.467Z,997.54
2023-06-02T04:23:45.485Z,997.60
2023-06-02T04:24:45.460Z,997.65
2023-06-02T04:25:45.449Z,997.65
2023-06-02T04:26:45.436Z,997.67
2023-06-02T04:27:45.451Z,997.64
2023-06-02T04:28:45.451Z,997.69
2023-06-02T04:29:45.460Z,997.71
2023-06-02T04:30:45.403Z,997.61
2023-06-02T04:31:45.446Z,997.69
2023-06-02T04:32:45.459Z,997.70
2023-06-02T04:33:45.399Z,997.69
2023-06-02T04:34:45.373Z,997.73
2023-06-02T04:35:45.365Z,997.70
2023-06-02T04:36:46.025Z,997.73
2023-06-02T04:37:45.395Z,997.72
2023-06-02T04:38:45.366Z,997.78
2023-06-02T04:39:45.336Z,997.80
2023-06-02T04:40:45.342Z,997.77
2023-06-02T04:41:45.347Z,997.70
2023-06-02T04:42:45.348Z,997.70
2023-06-02T04:43:45.303Z,997.80
2023-06-02T04:44:45.296Z,997.80
2023-06-02T04:45:45.292Z,997.76
2023-06-02T04:46:45.320Z,997.78
2023-06-02T04:47:45.363Z,997.78
2023-06-02T04:48:45.281Z,997.81
2023-06-02T04:49:45.267Z,997.85
2023-06-02T04:50:45.256Z,997.76
2023-06-02T04:51:45.265Z,997.79
2023-06-02T04:52:45.310Z,997.87
2023-06-02T04:53:45.261Z,997.84
2023-06-02T04:54:45.214Z,997.78
2023-06-02T04:55:45.222Z,997.84
2023-06-02T04:56:45.249Z,997.91
2023-06-02T04:57:45.186Z,997.96
2023-06-02T04:58:45.196Z,997.94
2023-06-02T04:59:45.163Z,997.95
2023-06-02T05:00:45.186Z,997.95
2023-06-02T05:01:45.208Z,997.95
2023-06-02T05:02:45.192Z,997.94
2023-06-02T05:03:45.145Z,997.98
2023-06-02T05:04:45.143Z,997.92
2023-06-02T05:05:45.133Z,997.98
2023-06-02T05:06:45.135Z,997.87
2023-06-02T05:07:45.103Z,997.93
2023-06-02T05:08:45.120Z,997.93
2023-06-02T05:09:45.112Z,997.84
2023-06-02T05:10:45.128Z,997.84
2023-06-02T05:11:45.112Z,997.88
2023-06-02T05:12:46.065Z,997.89
2023-06-02T05:13:45.098Z,997.88
2023-06-02T05:14:45.061Z,997.93
2023-06-02T05:15:45.080Z,997.86
2023-06-02T05:16:45.079Z,997.91
2023-06-02T05:17:45.446Z,997.93
2023-06-02T05:18:45.029Z,997.98
2023-06-02T05:19:45.319Z,997.95
2023-06-02T05:20:45.023Z,997.91
2023-06-02T05:21:45.099Z,997.97
2023-06-02T05:22:44.989Z,998.02
2023-06-02T05:23:44.989Z,997.96
2023-06-02T05:24:45.014Z,997.99
2023-06-02T05:25:44.990Z,998.00
2023-06-02T05:26:44.991Z,998.01
2023-06-02T05:27:44.953Z,997.98
2023-06-02T05:28:44.946Z,997.99
2023-06-02T05:29:45.005Z,997.98
2023-06-02T05:30:44.937Z,998.00
2023-06-02T05:31:44.946Z,998.10
2023-06-02T05:32:44.949Z,998.03
2023-06-02T05:33:44.927Z,998.04
2023-06-02T05:34:45.056Z,997.97
2023-06-02T05:35:44.892Z,998.00
2023-06-02T05:36:44.885Z,998.03
2023-06-02T05:37:44.887Z,998.05
2023-06-02T05:38:44.916Z,998.11
2023-06-02T05:39:44.910Z,998.05
2023-06-02T05:40:44.851Z,998.06
2023-06-02T05:41:44.846Z,998.08
2023-06-02T05:42:44.856Z,998.14
2023-06-02T05:43:44.849Z,998.01
2023-06-02T05:44:44.816Z,998.10
2023-06-02T05:45:44.832Z,998.06
2023-06-02T05:46:44.821Z,998.12
2023-06-02T05:47:44.882Z,998.15
2023-06-02T05:48:44.817Z,998.17
2023-06-02T05:49:44.835Z,998.07
2023-06-02T05:50:44.792Z,998.09
2023-06-02T05:51:44.780Z,998.14
2023-06-02T05:52:44.786Z,998.12
2023-06-02T05:53:44.785Z,998.11
2023-06-02T05:54:44.766Z,998.17
2023-06-02T05:55:44.754Z,998.11
2023-06-02T05:56:44.726Z,998.18
2023-06-02T05:57:44.799Z,998.16
2023-06-02T05:58:44.749Z,998.26
2023-06-02T05:59:44.713Z,998.19
2023-06-02T06:00:44.728Z,998.13
2023-06-02T06:01:44.686Z,998.16
2023-06-02T06:02:44.771Z,998.13
2023-06-02T06:03:44.797Z,998.09
2023-06-02T06:04:44.668Z,998.15
2023-06-02T06:05:44.666Z,998.16
2023-06-02T06:06:44.687Z,998.19
2023-06-02T06:07:44.675Z,998.14
2023-06-02T06:08:44.633Z,998.12
2023-06-02T06:09:44.660Z,998.10
2023-06-02T06:10:44.649Z,998.18
2023-06-02T06:11:44.661Z,998.22
2023-06-02T06:12:44.631Z,998.23
2023-06-02T06:13:44.625Z,998.19
2023-06-02T06:14:44.601Z,998.16
2023-06-02T06:15:44.658Z,998.13
2023-06-02T06:16:44.626Z,998.26
2023-06-02T06:17:44.626Z,998.24
2023-06-02T06:18:44.588Z,998.22
2023-06-02T06:19:44.598Z,998.25
2023-06-02T06:20:44.569Z,998.18
2023-06-02T06:21:45.622Z,998.31
2023-06-02T06:22:44.547Z,998.28
2023-06-02T06:23:44.535Z,998.29
2023-06-02T06:24:44.528Z,998.26
2023-06-02T06:25:44.538Z,998.38
2023-06-02T06:26:44.543Z,998.29
2023-06-02T06:27:44.497Z,998.29
2023-06-02T06:28:44.496Z,998.30
2023-06-02T06:29:44.491Z,998.37
2023-06-02T06:30:44.547Z,998.35
2023-06-02T06:31:44.634Z,998.31
2023-06-02T06:32:44.493Z,998.37
2023-06-02T06:33:44.474Z,998.32
2023-06-02T06:34:44.458Z,998.39
2023-06-02T06:35:44.474Z,998.41
2023-06-02T06:36:44.449Z,998.37
2023-06-02T06:37:44.421Z,998.38
2023-06-02T06:38:44.423Z,998.43
2023-06-02T06:39:44.443Z,998.38
2023-06-02T06:40:44.421Z,998.43
2023-06-02T06:41:44.404Z,998.28
2023-06-02T06:42:44.387Z,998.34
2023-06-02T06:43:44.377Z,998.44
2023-06-02T06:44:44.396Z,998.45
2023-06-02T06:45:44.383Z,998.41
2023-06-02T06:46:44.373Z,998.44
2023-06-02T06:47:44.436Z,998.49
2023-06-02T06:48:44.383Z,998.50
2023-06-02T06:49:44.379Z,998.47
2023-06-02T06:51:18.668Z,998.52
2023-06-02T06:51:44.320Z,998.47
2023-06-02T06:52:44.308Z,998.45
2023-06-02T06:53:44.363Z,998.44
2023-06-02T06:54:44.329Z,998.49
2023-06-02T06:55:44.286Z,998.51
2023-06-02T06:56:44.303Z,998.43
2023-06-02T06:57:44.290Z,998.52
2023-06-02T06:58:44.323Z,998.42
2023-06-02T06:59:44.266Z,998.54
2023-06-02T07:00:44.254Z,998.44
2023-06-02T07:01:44.282Z,998.48
2023-06-02T07:02:44.341Z,998.52
2023-06-02T07:03:45.943Z,998.51
2023-06-02T07:04:45.266Z,998.42
2023-06-02T07:05:44.213Z,998.57
2023-06-02T07:06:44.208Z,998.54
2023-06-02T07:07:44.238Z,998.43
2023-06-02T07:08:44.228Z,998.54
2023-06-02T07:09:44.187Z,998.58
2023-06-02T07:10:44.185Z,998.56
2023-06-02T07:11:44.168Z,998.61
2023-06-02T07:12:44.199Z,998.58
2023-06-02T07:13:44.165Z,998.60
2023-06-02T07:14:44.152Z,998.61
2023-06-02T07:15:44.148Z,998.52
2023-06-02T07:16:44.138Z,998.65
2023-06-02T07:17:44.232Z,998.60
2023-06-02T07:18:44.119Z,998.63
2023-06-02T07:19:44.108Z,998.58
2023-06-02T07:20:44.102Z,998.58
2023-06-02T07:21:44.160Z,998.61
2023-06-02T07:22:44.113Z,998.63
2023-06-02T07:23:44.102Z,998.67
2023-06-02T07:24:44.072Z,998.69
2023-06-02T07:25:44.074Z,998.61
2023-06-02T07:26:44.083Z,998.70
2023-06-02T07:27:44.049Z,998.68
2023-06-02T07:28:44.046Z,998.73
2023-06-02T07:29:44.029Z,998.67
2023-06-02T07:30:46.016Z,998.72
2023-06-02T07:31:45.230Z,998.69
2023-06-02T07:32:44.041Z,998.68
2023-06-02T07:33:44.001Z,998.77
2023-06-02T07:34:44.001Z,998.76
2023-06-02T07:35:44.042Z,998.79
2023-06-02T07:36:44.052Z,998.77
2023-06-02T07:37:43.975Z,998.77
2023-06-02T07:38:43.965Z,998.74
2023-06-02T07:39:43.955Z,998.69
2023-06-02T07:40:44.000Z,998.76
2023-06-02T07:41:43.975Z,998.67
2023-06-02T07:42:44.965Z,998.67
2023-06-02T07:43:43.929Z,998.70
2023-06-02T07:44:43.965Z,998.63
2023-06-02T07:45:43.931Z,998.69
2023-06-02T07:46:43.959Z,998.64
2023-06-02T07:47:43.919Z,998.72
2023-06-02T07:48:43.896Z,998.65
2023-06-02T07:49:43.960Z,998.61
2023-06-02T07:50:43.907Z,998.65
2023-06-02T07:51:43.880Z,998.70
2023-06-02T07:52:43.871Z,998.65
2023-06-02T07:53:43.854Z,998.72
2023-06-02T07:54:43.879Z,998.70
2023-06-02T07:55:43.874Z,998.68
2023-06-02T07:56:43.847Z,998.65
2023-06-02T07:57:43.819Z,998.75
2023-06-02T07:58:43.812Z,998.67
2023-06-02T07:59:43.842Z,998.64
2023-06-02T08:00:43.810Z,998.64
2023-06-02T08:01:43.801Z,998.73
2023-06-02T08:02:43.848Z,998.75
2023-06-02T08:03:43.873Z,998.65
2023-06-02T08:04:43.865Z,998.74
2023-06-02T08:05:43.765Z,998.74
2023-06-02T08:06:44.212Z,998.71
2023-06-02T08:07:44.808Z,998.66
2023-06-02T08:08:43.783Z,998.59
2023-06-02T08:09:43.823Z,998.66
2023-06-02T08:10:43.720Z,998.64
2023-06-02T08:11:43.745Z,998.65
2023-06-02T08:12:43.714Z,998.59
2023-06-02T08:13:43.761Z,998.66
2023-06-02T08:14:44.134Z,998.67
2023-06-02T08:15:45.924Z,998.68
2023-06-02T08:16:57.110Z,998.64
2023-06-02T08:17:45.841Z,998.66
2023-06-02T08:18:43.808Z,998.65
2023-06-02T08:19:43.655Z,998.61
2023-06-02T08:20:43.640Z,998.66
2023-06-02T08:21:43.700Z,998.69
2023-06-02T08:22:43.656Z,998.60
2023-06-02T08:23:43.674Z,998.58
2023-06-02T08:24:43.610Z,998.60
2023-06-02T08:25:43.609Z,998.64
2023-06-02T08:26:43.594Z,998.60
2023-06-02T08:27:43.642Z,998.54
2023-06-02T08:28:43.603Z,998.64
2023-06-02T08:29:43.591Z,998.64
2023-06-02T08:30:43.564Z,998.64
2023-06-02T08:31:43.695Z,998.69
2023-06-02T08:32:43.647Z,998.66
2023-06-02T08:33:43.541Z,998.64
2023-06-02T08:34:43.531Z,998.63
2023-06-02T08:35:43.617Z,998.67
2023-06-02T08:36:43.667Z,998.66
2023-06-02T08:37:43.564Z,998.67
2023-06-02T08:38:43.497Z,998.61
2023-06-02T08:39:43.488Z,998.65
2023-06-02T08:40:43.553Z,998.65
2023-06-02T08:41:43.494Z,998.60
2023-06-02T08:42:43.490Z,998.67
2023-06-02T08:43:43.459Z,998.60
2023-06-02T08:44:43.458Z,998.52
2023-06-02T08:45:43.443Z,998.57
2023-06-02T08:46:43.495Z,998.52
2023-06-02T08:47:43.453Z,998.57
2023-06-02T08:48:43.441Z,998.58
2023-06-02T08:49:43.403Z,998.58
2023-06-02T08:50:43.403Z,998.56
2023-06-02T08:51:43.423Z,998.62
2023-06-02T08:52:43.419Z,998.58
2023-06-02T08:53:43.423Z,998.67
2023-06-02T08:54:43.411Z,998.64
2023-06-02T08:55:43.408Z,998.67
2023-06-02T08:56:43.425Z,998.66
2023-06-02T08:57:43.348Z,998.63
2023-06-02T08:58:43.346Z,998.67
2023-06-02T08:59:43.345Z,998.64
2023-06-02T09:00:43.394Z,998.52
2023-06-02T09:01:43.419Z,998.62
2023-06-02T09:02:43.364Z,998.52
2023-06-02T09:03:46.984Z,998.46
2023-06-02T09:04:44.383Z,998.55
2023-06-02T09:05:43.333Z,998.57
2023-06-02T09:06:43.281Z,998.62
2023-06-02T09:07:43.350Z,998.47
2023-06-02T09:08:43.261Z,998.56
2023-06-02T09:09:43.304Z,998.58
2023-06-02T09:10:43.293Z,998.57
2023-06-02T09:11:43.302Z,998.54
2023-06-02T09:12:43.229Z,998.59
2023-06-02T09:13:43.216Z,998.59
2023-06-02T09:14:43.271Z,998.53
2023-06-02T09:15:43.229Z,998.58
2023-06-02T09:16:43.254Z,998.54
2023-06-02T09:17:43.230Z,998.57
2023-06-02T09:18:43.179Z,998.64
2023-06-02T09:19:43.197Z,998.49
2023-06-02T09:20:43.171Z,998.60
2023-06-02T09:21:43.252Z,998.50
2023-06-02T09:22:49.121Z,998.54
2023-06-02T09:23:44.506Z,998.62
2023-06-02T09:24:43.178Z,998.62
2023-06-02T09:25:43.139Z,998.56
2023-06-02T09:26:43.130Z,998.61
2023-06-02T09:27:43.119Z,998.61
2023-06-02T09:28:43.136Z,998.57
2023-06-02T09:29:43.153Z,998.60
2023-06-02T09:30:43.132Z,998.52
2023-06-02T09:31:43.109Z,998.62
2023-06-02T09:32:43.205Z,998.70
2023-06-02T09:33:43.113Z,998.63
2023-06-02T09:34:43.111Z,998.64
2023-06-02T09:35:43.067Z,998.62
2023-06-02T09:36:43.078Z,998.57
2023-06-02T09:37:43.048Z,998.57
2023-06-02T09:38:43.066Z,998.62
2023-06-02T09:39:43.042Z,998.58
2023-06-02T09:40:43.025Z,998.57
2023-06-02T09:41:43.015Z,998.55
2023-06-02T09:42:43.007Z,998.57
2023-06-02T09:43:43.028Z,998.56
2023-06-02T09:44:43.001Z,998.63
2023-06-02T09:45:43.084Z,998.57
2023-06-02T09:46:43.052Z,998.55
2023-06-02T09:47:43.522Z,998.50
2023-06-02T09:48:43.036Z,998.50
2023-06-02T09:49:42.950Z,998.48
2023-06-02T09:50:42.966Z,998.49
2023-06-02T09:51:42.942Z,998.56
2023-06-02T09:52:42.957Z,998.57
2023-06-02T09:53:42.939Z,998.48
2023-06-02T09:54:42.932Z,998.54
2023-06-02T09:55:42.915Z,998.60
2023-06-02T09:56:42.909Z,998.50
2023-06-02T09:57:42.920Z,998.49
2023-06-02T09:58:42.881Z,998.55
2023-06-02T09:59:42.875Z,998.47
2023-06-02T10:00:42.869Z,998.52
2023-06-02T10:01:42.981Z,998.37
2023-06-02T10:02:43.040Z,998.39
2023-06-02T10:03:42.989Z,998.44
2023-06-02T10:04:42.844Z,998.37
2023-06-02T10:05:42.836Z,998.44
2023-06-02T10:06:42.856Z,998.44
2023-06-02T10:07:42.815Z,998.49
2023-06-02T10:08:42.815Z,998.49
2023-06-02T10:09:42.803Z,998.46
2023-06-02T10:10:42.792Z,998.44
2023-06-02T10:11:42.808Z,998.48
2023-06-02T10:12:42.793Z,998.45
2023-06-02T10:13:42.805Z,998.42
2023-06-02T10:14:42.792Z,998.51
2023-06-02T10:15:42.862Z,998.42
2023-06-02T10:16:42.769Z,998.44
2023-06-02T10:17:42.785Z,998.42
2023-06-02T10:18:42.730Z,998.47
2023-06-02T10:19:42.734Z,998.51
2023-06-02T10:20:42.786Z,998.40
2023-06-02T10:21:42.719Z,998.42
2023-06-02T10:22:42.696Z,998.40
2023-06-02T10:23:42.731Z,998.46
2023-06-02T10:24:42.689Z,998.50
2023-06-02T10:25:42.708Z,998.49
2023-06-02T10:26:42.667Z,998.48
2023-06-02T10:27:42.660Z,998.43
2023-06-02T10:28:42.666Z,998.49
2023-06-02T10:29:42.695Z,998.45
2023-06-02T10:30:42.664Z,998.49
2023-06-02T10:31:42.733Z,998.51
2023-06-02T10:32:42.646Z,998.50
2023-06-02T10:33:42.620Z,998.48
2023-06-02T10:34:42.653Z,998.53
2023-06-02T10:35:42.601Z,998.56
2023-06-02T10:36:42.597Z,998.56
2023-06-02T10:37:42.587Z,998.47
2023-06-02T10:38:42.586Z,998.45
2023-06-02T10:39:42.595Z,998.48
2023-06-02T10:40:42.566Z,998.47
2023-06-02T10:41:42.559Z,998.29
2023-06-02T10:42:42.552Z,998.34
2023-06-02T10:43:42.557Z,998.33
2023-06-02T10:44:42.559Z,998.24
2023-06-02T10:45:42.654Z,998.39
2023-06-02T10:46:42.549Z,998.39
2023-06-02T10:47:42.539Z,998.32
2023-06-02T10:48:42.537Z,998.31
2023-06-02T10:49:50.333Z,998.41
2023-06-02T10:50:44.489Z,998.27
2023-06-02T10:51:42.476Z,998.28
2023-06-02T10:52:42.476Z,998.30
2023-06-02T10:53:42.491Z,998.31
2023-06-02T10:54:42.451Z,998.29
2023-06-02T10:55:42.540Z,998.22
2023-06-02T10:56:42.469Z,998.20
2023-06-02T10:57:42.429Z,998.07
2023-06-02T10:58:42.477Z,998.23
2023-06-02T10:59:42.411Z,998.14
2023-06-02T11:00:42.452Z,998.18
2023-06-02T11:01:42.409Z,998.20
2023-06-02T11:02:42.511Z,998.15
2023-06-02T11:03:42.440Z,998.19
2023-06-02T11:04:42.372Z,998.22
2023-06-02T11:05:42.371Z,998.24
2023-06-02T11:06:42.360Z,998.21
2023-06-02T11:07:42.378Z,998.23
2023-06-02T11:08:42.344Z,998.19
2023-06-02T11:09:42.325Z,998.15
2023-06-02T11:10:43.333Z,998.17
2023-06-02T11:11:42.321Z,998.20
2023-06-02T11:12:42.328Z,998.15
2023-06-02T11:13:43.320Z,998.12
2023-06-02T11:14:42.295Z,998.17
2023-06-02T11:15:42.287Z,998.15
2023-06-02T11:16:42.344Z,998.17
2023-06-02T11:17:42.320Z,998.23
2023-06-02T11:18:42.262Z,998.13
2023-06-02T11:19:42.265Z,998.11
2023-06-02T11:20:42.242Z,998.17
2023-06-02T11:21:42.311Z,998.16
2023-06-02T11:22:42.231Z,998.15
2023-06-02T11:23:42.224Z,998.11
2023-06-02T11:24:42.220Z,998.11
2023-06-02T11:25:42.211Z,998.00
2023-06-02T11:26:42.295Z,998.05
2023-06-02T11:27:43.192Z,998.03
2023-06-02T11:28:42.177Z,998.03
2023-06-02T11:29:42.181Z,997.94
2023-06-02T11:30:42.235Z,997.98
2023-06-02T11:31:42.191Z,998.00
2023-06-02T11:32:42.210Z,998.09
2023-06-02T11:33:42.152Z,998.01
2023-06-02T11:34:42.132Z,998.00
2023-06-02T11:35:42.156Z,998.06
2023-06-02T11:36:42.122Z,998.03
2023-06-02T11:37:42.161Z,998.09
2023-06-02T11:38:42.108Z,998.05
2023-06-02T11:39:42.095Z,998.04
2023-06-02T11:40:42.115Z,998.09
2023-06-02T11:41:42.093Z,997.98
2023-06-02T11:42:42.077Z,998.02
2023-06-02T11:43:42.090Z,998.01
2023-06-02T11:44:42.086Z,998.05
2023-06-02T11:45:42.078Z,998.05
2023-06-02T11:46:42.062Z,998.01
2023-06-02T11:47:42.073Z,997.92
2023-06-02T11:48:42.114Z,997.95
2023-06-02T11:49:42.044Z,997.98
2023-06-02T11:50:42.750Z,998.03
2023-06-02T11:51:42.033Z,998.07
2023-06-02T11:52:41.996Z,997.99
2023-06-02T11:53:41.993Z,997.99
2023-06-02T11:54:42.063Z,997.91
2023-06-02T11:55:42.081Z,998.02
2023-06-02T11:56:41.968Z,998.12
2023-06-02T11:57:41.959Z,998.04
2023-06-02T11:58:41.979Z,998.06
2023-06-02T11:59:41.972Z,998.01
2023-06-02T12:00:41.966Z,997.92
2023-06-02T12:01:42.083Z,997.86
2023-06-02T12:02:42.040Z,997.91
2023-06-02T12:03:42.034Z,997.97
2023-06-02T12:04:42.033Z,997.87
2023-06-02T12:05:41.899Z,997.87
2023-06-02T12:06:41.901Z,997.84
2023-06-02T12:07:41.888Z,997.86
2023-06-02T12:08:41.927Z,997.90
2023-06-02T12:09:41.868Z,997.88
2023-06-02T12:10:41.865Z,997.77
2023-06-02T12:11:41.855Z,997.81
2023-06-02T12:12:41.876Z,997.80
2023-06-02T12:13:41.885Z,997.87
2023-06-02T12:14:41.829Z,997.85
2023-06-02T12:15:41.818Z,997.79
2023-06-02T12:16:42.080Z,997.71
2023-06-02T12:17:41.904Z,997.76
2023-06-02T12:18:41.801Z,997.63
2023-06-02T12:19:41.847Z,997.71
2023-06-02T12:20:41.789Z,997.72
2023-06-02T12:21:42.000Z,997.64
2023-06-02T12:22:41.818Z,997.61
2023-06-02T12:23:41.763Z,997.73
2023-06-02T12:24:41.756Z,997.66
2023-06-02T12:25:41.747Z,997.62
2023-06-02T12:26:41.836Z,997.65
2023-06-02T12:27:41.844Z,997.72
2023-06-02T12:28:41.727Z,997.76